Time;durP1;ratioP1;P1;durP2;ratioP2;P2;SDS_P1;SDS_P2;PMS_P1;PMS_P2;Temp;Humidity;BMP_temperature;BMP_pressure;BME280_temperature;BME280_humidity;BME280_pressure;Samples;Min_cycle;Max_cycle;Signal;HPM_P1;HPM_P2
2021/03/04 00:00:40;;;;;;;50.17;24.55;;;6.40;84.60;;;;;;2063152;28;20038;-80
2021/03/04 00:01:40;;;;;;;48.13;24.00;;;6.40;84.60;;;;;;2064306;28;20014;-81
2021/03/04 00:02:42;;;;;;;50.13;24.35;;;6.40;84.60;;;;;;2072643;28;20561;-81
2021/03/04 00:03:42;;;;;;;55.25;25.17;;;6.40;84.70;;;;;;2078372;28;20021;-80
2021/03/04 00:04:43;;;;;;;52.00;25.70;;;6.30;84.60;;;;;;2072504;28;20543;-80
2021/03/04 00:05:44;;;;;;;54.55;26.17;;;6.30;84.70;;;;;;2072127;28;20037;-81
2021/03/04 00:06:45;;;;;;;58.67;27.35;;;6.30;84.70;;;;;;2080537;28;20084;-81
2021/03/04 00:07:46;;;;;;;57.20;26.48;;;6.30;84.70;;;;;;2064663;28;20069;-80
2021/03/04 00:08:46;;;;;;;59.72;28.65;;;6.20;84.80;;;;;;2064243;28;20180;-81
2021/03/04 00:09:47;;;;;;;63.35;29.42;;;6.30;84.80;;;;;;2064376;28;20512;-81
2021/03/04 00:10:48;;;;;;;59.08;29.00;;;6.20;84.90;;;;;;2064921;28;20026;-81
2021/03/04 00:11:48;;;;;;;60.92;27.35;;;6.20;85.00;;;;;;2071196;28;20176;-81
2021/03/04 00:12:50;;;;;;;59.72;26.88;;;6.20;85.10;;;;;;2072389;28;20029;-80
2021/03/04 00:13:50;;;;;;;58.53;27.30;;;6.20;85.10;;;;;;2072451;28;20022;-81
2021/03/04 00:14:51;;;;;;;54.00;25.85;;;6.20;85.10;;;;;;2064609;28;20058;-81
2021/03/04 00:15:53;;;;;;;57.05;27.05;;;6.20;85.10;;;;;;2063836;28;20102;-81
2021/03/04 00:16:54;;;;;;;54.15;25.50;;;6.20;85.10;;;;;;2064528;28;20547;-80
2021/03/04 00:17:55;;;;;;;54.50;26.08;;;6.20;85.20;;;;;;2056840;28;20062;-81
2021/03/04 00:18:56;;;;;;;51.92;24.98;;;6.20;85.20;;;;;;2072037;28;20160;-80
2021/03/04 00:19:56;;;;;;;53.38;26.30;;;6.20;85.20;;;;;;2072766;28;20026;-81
2021/03/04 00:20:57;;;;;;;52.15;24.60;;;6.20;85.10;;;;;;2072565;28;20042;-81
2021/03/04 00:21:58;;;;;;;50.60;24.80;;;6.20;85.10;;;;;;2072828;28;20090;-81
2021/03/04 00:22:59;;;;;;;52.38;26.08;;;6.20;85.70;;;;;;2072411;28;20022;-81
2021/03/04 00:24:00;;;;;;;52.95;24.73;;;6.20;85.10;;;;;;2072394;28;20514;-81
2021/03/04 00:25:03;;;;;;;54.75;25.35;;;6.30;85.20;;;;;;2063908;28;20035;-81
2021/03/04 00:26:04;;;;;;;51.22;24.73;;;6.30;85.10;;;;;;2072364;28;20066;-81
2021/03/04 00:27:05;;;;;;;48.92;24.40;;;6.30;85.00;;;;;;2073431;28;20026;-81
2021/03/04 00:28:06;;;;;;;52.80;25.30;;;6.40;85.00;;;;;;2074375;28;20021;-80
2021/03/04 00:29:06;;;;;;;52.65;25.23;;;6.30;84.80;;;;;;2083566;28;20510;-81
2021/03/04 00:30:09;;;;;;;52.65;24.80;;;6.40;84.90;;;;;;2074996;28;20025;-81
2021/03/04 00:31:09;;;;;;;48.70;24.10;;;6.40;84.90;;;;;;2073336;28;20092;-81
2021/03/04 00:32:10;;;;;;;52.80;25.00;;;6.40;84.90;;;;;;2083768;28;20014;-81
2021/03/04 00:33:11;;;;;;;52.90;24.83;;;6.40;85.50;;;;;;2083853;28;20476;-81
2021/03/04 00:34:11;;;;;;;49.83;23.63;;;6.40;84.90;;;;;;2083987;28;20022;-81
2021/03/04 00:35:13;;;;;;;51.00;24.42;;;6.40;84.90;;;;;;2075069;28;20419;-81
2021/03/04 00:36:13;;;;;;;48.65;23.48;;;6.40;84.90;;;;;;2074284;28;20518;-81
2021/03/04 00:37:14;;;;;;;45.75;23.38;;;6.40;84.90;;;;;;2067918;28;20030;-81
2021/03/04 00:38:15;;;;;;;47.70;23.02;;;6.40;84.90;;;;;;2066218;28;20037;-82
2021/03/04 00:39:15;;;;;;;47.30;23.20;;;6.40;84.90;;;;;;2074909;28;20033;-81
2021/03/04 00:40:19;;;;;;;50.42;23.98;;;6.40;85.00;;;;;;2074745;28;20030;-81
2021/03/04 00:41:20;;;;;;;48.80;23.55;;;6.40;85.00;;;;;;2075101;28;20030;-81
2021/03/04 00:42:21;;;;;;;47.60;22.73;;;6.40;85.00;;;;;;2074818;28;20531;-82
2021/03/04 00:43:21;;;;;;;49.30;24.17;;;6.40;85.00;;;;;;2074687;28;20029;-82
2021/03/04 00:44:22;;;;;;;56.20;26.05;;;6.40;84.90;;;;;;2068849;28;20061;-81
2021/03/04 00:45:24;;;;;;;58.83;27.30;;;6.40;84.90;;;;;;2060412;28;20027;-81
2021/03/04 00:46:24;;;;;;;57.58;27.05;;;6.40;84.90;;;;;;2056366;28;20117;-81
2021/03/04 00:47:25;;;;;;;57.78;26.70;;;6.30;84.80;;;;;;2058336;28;20113;-80
2021/03/04 00:48:25;;;;;;;58.80;27.23;;;6.30;84.90;;;;;;2058964;28;20042;-82
2021/03/04 00:49:26;;;;;;;56.83;26.17;;;6.20;85.00;;;;;;2074784;28;20395;-82
2021/03/04 00:50:27;;;;;;;56.03;27.55;;;6.20;85.10;;;;;;2072108;28;20506;-81
2021/03/04 00:51:28;;;;;;;55.65;26.42;;;6.20;85.20;;;;;;2075249;28;20450;-81
2021/03/04 00:52:28;;;;;;;54.38;26.10;;;6.10;85.30;;;;;;2067201;28;20041;-81
2021/03/04 00:53:29;;;;;;;50.22;25.25;;;6.10;85.50;;;;;;2067144;28;20033;-82
2021/03/04 00:54:30;;;;;;;51.90;23.60;;;6.10;85.50;;;;;;2066569;28;20520;-81
2021/03/04 00:55:31;;;;;;;53.55;25.10;;;6.10;85.60;;;;;;2066885;28;20065;-81
2021/03/04 00:56:31;;;;;;;54.20;25.75;;;6.10;85.60;;;;;;2066972;28;20077;-81
2021/03/04 00:57:32;;;;;;;47.95;22.60;;;6.10;85.60;;;;;;2072670;28;20033;-82
2021/03/04 00:58:33;;;;;;;48.58;23.67;;;6.10;85.60;;;;;;2066028;28;20117;-81
2021/03/04 00:59:34;;;;;;;46.58;22.35;;;6.10;86.30;;;;;;2074798;28;20034;-82
2021/03/04 01:00:34;;;;;;;48.55;22.67;;;6.10;85.70;;;;;;2070482;28;20553;-81
2021/03/04 01:01:35;;;;;;;49.17;23.45;;;6.10;86.40;;;;;;2068784;28;20026;-81
2021/03/04 01:02:36;;;;;;;45.90;21.55;;;6.10;85.80;;;;;;2066616;28;20061;-82
2021/03/04 01:03:36;;;;;;;44.95;22.50;;;6.00;85.70;;;;;;2074946;28;20010;-82
2021/03/04 01:04:37;;;;;;;44.97;22.38;;;6.00;85.80;;;;;;2082886;28;20587;-82
2021/03/04 01:05:38;;;;;;;45.25;22.58;;;6.00;86.00;;;;;;2075082;28;20069;-81
2021/03/04 01:06:38;;;;;;;45.40;22.23;;;6.00;86.00;;;;;;2074179;28;20515;-81
2021/03/04 01:07:39;;;;;;;45.08;22.33;;;6.10;86.00;;;;;;2074918;28;20476;-81
2021/03/04 01:08:39;;;;;;;45.63;21.20;;;6.10;86.00;;;;;;2062549;28;20591;-81
2021/03/04 01:09:40;;;;;;;43.35;21.10;;;6.10;85.90;;;;;;2067133;28;20030;-82
2021/03/04 01:10:42;;;;;;;46.38;21.80;;;6.20;85.90;;;;;;2074174;28;20084;-80
2021/03/04 01:11:43;;;;;;;44.47;21.75;;;6.20;85.90;;;;;;2075192;28;20026;-81
2021/03/04 01:12:43;;;;;;;45.13;22.30;;;6.20;85.70;;;;;;2075372;28;20050;-81
2021/03/04 01:13:44;;;;;;;43.45;21.08;;;6.20;85.60;;;;;;2067001;28;20061;-81
2021/03/04 01:14:45;;;;;;;42.75;21.00;;;6.20;85.60;;;;;;2059128;28;20034;-81
2021/03/04 01:15:46;;;;;;;49.25;23.50;;;6.20;85.60;;;;;;2074765;28;20512;-81
2021/03/04 01:16:46;;;;;;;46.83;22.90;;;6.20;85.60;;;;;;2066336;28;20041;-81
2021/03/04 01:17:47;;;;;;;44.38;21.70;;;6.10;85.60;;;;;;2062518;28;20406;-80
2021/03/04 01:18:48;;;;;;;44.88;22.35;;;6.10;85.70;;;;;;2067915;28;20034;-81
2021/03/04 01:19:49;;;;;;;46.85;22.20;;;6.10;85.70;;;;;;2074876;28;20117;-81
2021/03/04 01:20:49;;;;;;;44.72;22.70;;;6.10;85.90;;;;;;2074607;28;20073;-81
2021/03/04 01:21:50;;;;;;;46.95;22.70;;;6.10;85.90;;;;;;2083615;28;20033;-80
2021/03/04 01:22:51;;;;;;;45.05;21.77;;;6.00;85.90;;;;;;2083192;28;20034;-81
2021/03/04 01:23:51;;;;;;;50.67;23.83;;;6.00;86.00;;;;;;2074980;28;20117;-81
2021/03/04 01:24:52;;;;;;;58.78;25.48;;;6.00;86.10;;;;;;2066240;28;20130;-81
2021/03/04 01:25:53;;;;;;;49.00;23.80;;;6.00;86.10;;;;;;2074504;28;20423;-81
2021/03/04 01:26:53;;;;;;;50.05;24.05;;;5.90;86.10;;;;;;2077284;28;20022;-80
2021/03/04 01:27:54;;;;;;;54.28;24.35;;;5.90;86.20;;;;;;2074814;28;20061;-81
2021/03/04 01:28:54;;;;;;;46.80;23.10;;;5.80;86.20;;;;;;2074521;28;20117;-81
2021/03/04 01:29:55;;;;;;;50.10;24.02;;;5.80;86.90;;;;;;2066585;28;20038;-81
2021/03/04 01:30:56;;;;;;;47.10;23.20;;;5.80;86.40;;;;;;2074880;28;20064;-81
2021/03/04 01:31:56;;;;;;;47.17;22.52;;;5.80;86.40;;;;;;2082802;28;20451;-81
2021/03/04 01:32:57;;;;;;;44.63;21.73;;;5.80;86.60;;;;;;2082456;28;20403;-81
2021/03/04 01:33:58;;;;;;;40.85;21.20;;;5.80;86.60;;;;;;2082927;28;20026;-81
2021/03/04 01:34:59;;;;;;;42.17;21.33;;;5.80;86.60;;;;;;2081960;28;20029;-81
2021/03/04 01:35:59;;;;;;;41.38;20.80;;;5.80;86.50;;;;;;2082301;28;20037;-81
2021/03/04 01:37:00;;;;;;;39.67;20.35;;;5.80;86.40;;;;;;2079649;28;20108;-81
2021/03/04 01:38:01;;;;;;;41.22;20.50;;;5.80;86.30;;;;;;2074922;28;20040;-81
2021/03/04 01:39:02;;;;;;;37.42;19.02;;;5.80;86.30;;;;;;2072797;28;20022;-81
2021/03/04 01:40:09;;;;;;;36.85;18.95;;;5.80;86.30;;;;;;2073052;28;20030;-80
2021/03/04 01:41:10;;;;;;;36.28;18.60;;;5.80;86.40;;;;;;2074679;28;20049;-81
2021/03/04 01:42:10;;;;;;;34.83;18.13;;;5.80;86.40;;;;;;2081768;28;20125;-81
2021/03/04 01:43:11;;;;;;;38.78;18.75;;;5.70;86.40;;;;;;2082470;28;20074;-81
2021/03/04 01:44:12;;;;;;;33.72;17.50;;;5.80;86.50;;;;;;2073310;28;20033;-81
2021/03/04 01:45:12;;;;;;;35.38;18.65;;;5.80;86.50;;;;;;2073704;28;20032;-81
2021/03/04 01:46:13;;;;;;;33.45;17.25;;;5.80;86.40;;;;;;2081413;28;20116;-80
2021/03/04 01:47:16;;;;;;;33.65;17.33;;;5.80;86.30;;;;;;2077175;28;20493;-81
2021/03/04 01:48:17;;;;;;;32.75;17.70;;;5.80;86.30;;;;;;2073420;28;20026;-81
2021/03/04 01:49:17;;;;;;;34.55;18.30;;;5.80;86.90;;;;;;2081117;28;20040;-80
2021/03/04 01:50:19;;;;;;;37.30;18.50;;;5.80;86.20;;;;;;2081251;28;20069;-81
2021/03/04 01:51:20;;;;;;;34.60;17.67;;;5.80;86.10;;;;;;2080482;28;20479;-80
2021/03/04 01:52:21;;;;;;;33.28;17.05;;;5.80;86.10;;;;;;2078091;28;20029;-81
2021/03/04 01:53:22;;;;;;;32.30;17.25;;;5.80;86.10;;;;;;2073822;28;20550;-81
2021/03/04 01:54:23;;;;;;;33.63;17.35;;;5.80;86.10;;;;;;2073550;28;20045;-80
2021/03/04 01:55:24;;;;;;;33.72;17.70;;;5.80;86.10;;;;;;2073984;28;20073;-81
2021/03/04 01:56:25;;;;;;;36.72;18.55;;;5.80;86.60;;;;;;2073074;28;20569;-81
2021/03/04 01:57:28;;;;;;;31.75;18.25;;;5.80;86.00;;;;;;2073250;28;20636;-80
2021/03/04 01:58:29;;;;;;;35.30;18.08;;;5.80;86.00;;;;;;2081203;28;20129;-80
2021/03/04 01:59:30;;;;;;;34.13;17.95;;;5.80;86.00;;;;;;2073583;28;20033;-81
2021/03/04 02:00:30;;;;;;;32.65;17.52;;;5.80;85.90;;;;;;2066832;28;20035;-80
2021/03/04 02:01:32;;;;;;;38.65;18.00;;;5.80;86.60;;;;;;2082165;28;20022;-80
2021/03/04 02:02:32;;;;;;;32.88;17.75;;;5.80;86.00;;;;;;2081376;28;20060;-81
2021/03/04 02:03:33;;;;;;;35.33;18.65;;;5.80;86.00;;;;;;2075073;28;20049;-81
2021/03/04 02:04:34;;;;;;;35.10;18.23;;;5.70;86.10;;;;;;2073510;28;20414;-81
2021/03/04 02:05:35;;;;;;;37.63;18.70;;;5.70;86.20;;;;;;2075651;28;20042;-80
2021/03/04 02:07:12;;;;;;;37.10;18.95;;;5.70;86.90;;;;;;2078736;28;20025;-81
2021/03/04 02:08:39;;;;;;;35.08;17.52;;;5.60;86.30;;;;;;2081566;28;20605;-80
2021/03/04 02:09:45;;;;;;;35.20;16.88;;;5.60;86.40;;;;;;2087252;28;20123;-81
2021/03/04 02:10:49;;;;;;;33.58;16.85;;;5.60;86.40;;;;;;2083857;28;20039;-80
2021/03/04 02:11:56;;;;;;;35.28;17.30;;;5.60;86.40;;;;;;2073481;28;20434;-80
2021/03/04 02:13:02;;;;;;;35.40;17.88;;;5.60;86.40;;;;;;2073917;28;20022;-80
2021/03/04 02:14:21;;;;;;;37.03;17.10;;;5.60;86.50;;;;;;2073948;28;20117;-80
2021/03/04 02:15:29;;;;;;;32.63;16.58;;;5.60;86.50;;;;;;2079221;28;20029;-80
2021/03/04 02:16:37;;;;;;;33.95;17.30;;;5.50;86.50;;;;;;2077937;28;20065;-80
2021/03/04 02:17:44;;;;;;;31.52;16.58;;;5.50;87.20;;;;;;2082486;28;20025;-81
2021/03/04 02:18:57;;;;;;;30.48;16.17;;;5.50;86.60;;;;;;2075831;28;20030;-81
2021/03/04 02:20:10;;;;;;;32.20;16.30;;;5.60;86.60;;;;;;2073309;28;20037;-81
2021/03/04 02:21:36;;;;;;;32.45;16.30;;;5.60;86.50;;;;;;2080589;28;20108;-81
2021/03/04 02:22:45;;;;;;;32.78;15.85;;;5.70;86.50;;;;;;2067971;28;20022;-80
2021/03/04 02:24:10;;;;;;;32.80;16.42;;;5.70;86.40;;;;;;2074317;28;20025;-80
2021/03/04 02:25:33;;;;;;;33.72;16.40;;;5.70;86.20;;;;;;2070807;28;20033;-80
2021/03/04 02:26:43;;;;;;;32.13;16.33;;;5.70;86.10;;;;;;2072160;28;20034;-81
2021/03/04 02:27:44;;;;;;;32.30;15.07;;;5.80;86.00;;;;;;2073084;28;20117;-80
2021/03/04 02:28:48;;;;;;;31.95;16.38;;;5.80;86.00;;;;;;2073167;28;20065;-80
2021/03/04 02:29:54;;;;;;;33.55;16.42;;;5.80;85.90;;;;;;2080875;28;20026;-80
2021/03/04 02:31:04;;;;;;;34.75;16.15;;;5.80;85.90;;;;;;2080784;28;20557;-81
2021/03/04 02:32:07;;;;;;;33.05;16.10;;;5.80;85.90;;;;;;2081088;28;20476;-80
2021/03/04 02:33:19;;;;;;;35.20;17.17;;;5.80;85.90;;;;;;2070947;28;20036;-80
2021/03/04 02:34:24;;;;;;;36.00;16.67;;;5.90;86.50;;;;;;2066025;28;20117;-81
2021/03/04 02:35:28;;;;;;;31.13;16.52;;;5.90;85.90;;;;;;2065638;28;20058;-81
2021/03/04 02:36:37;;;;;;;34.25;16.88;;;5.90;85.80;;;;;;2075906;28;20364;-81
2021/03/04 02:37:43;;;;;;;33.15;16.48;;;5.90;85.80;;;;;;2085395;28;20056;-81
2021/03/04 02:38:44;;;;;;;39.00;18.60;;;5.90;85.80;;;;;;2091400;28;20077;-80
2021/03/04 02:39:47;;;;;;;36.67;18.33;;;5.90;85.70;;;;;;2091708;28;20012;-80
2021/03/04 02:40:51;;;;;;;35.10;17.90;;;5.80;85.70;;;;;;2091510;28;20052;-82
2021/03/04 02:41:53;;;;;;;35.90;17.30;;;5.80;85.80;;;;;;2090546;28;20021;-81
2021/03/04 02:42:55;;;;;;;35.78;18.38;;;5.80;85.80;;;;;;2083233;28;20057;-81
2021/03/04 02:43:55;;;;;;;31.90;17.15;;;5.80;85.80;;;;;;2080768;28;20570;-81
2021/03/04 02:44:58;;;;;;;32.53;17.25;;;5.80;85.80;;;;;;2079965;28;20108;-81
2021/03/04 02:45:59;;;;;;;32.40;16.08;;;5.80;85.90;;;;;;2079452;28;20124;-81
2021/03/04 02:47:00;;;;;;;32.75;16.30;;;5.70;85.90;;;;;;2068089;28;20033;-81
2021/03/04 02:48:02;;;;;;;33.58;17.17;;;5.70;86.10;;;;;;2077443;28;20087;-79
2021/03/04 02:49:04;;;;;;;31.95;16.73;;;5.70;86.10;;;;;;2081215;28;20003;-81
2021/03/04 02:50:07;;;;;;;31.58;16.88;;;5.70;86.30;;;;;;2070247;28;20106;-80
2021/03/04 02:51:09;;;;;;;33.20;17.17;;;5.70;86.20;;;;;;2078970;28;20030;-80
2021/03/04 02:52:10;;;;;;;31.75;17.05;;;5.70;86.30;;;;;;2091046;28;20006;-82
2021/03/04 02:53:11;;;;;;;36.03;17.40;;;5.70;86.20;;;;;;2088754;28;20010;-81
2021/03/04 02:54:13;;;;;;;32.03;16.55;;;5.60;86.40;;;;;;2080886;28;20068;-80
2021/03/04 02:55:14;;;;;;;34.30;17.63;;;5.60;86.40;;;;;;2081997;28;20029;-81
2021/03/04 02:56:16;;;;;;;37.45;18.25;;;5.60;86.50;;;;;;2070444;28;20021;-81
2021/03/04 02:57:19;;;;;;;37.67;18.65;;;5.60;86.50;;;;;;2063372;28;20027;-81
2021/03/04 02:58:20;;;;;;;34.47;16.80;;;5.60;86.60;;;;;;2080818;28;20108;-81
2021/03/04 02:59:21;;;;;;;35.72;17.48;;;5.60;86.70;;;;;;2081293;28;20075;-81
2021/03/04 03:00:26;;;;;;;33.83;16.70;;;5.60;86.70;;;;;;2070239;28;20049;-80
2021/03/04 03:01:28;;;;;;;32.75;17.27;;;5.50;86.70;;;;;;2073931;28;20092;-80
2021/03/04 03:02:28;;;;;;;35.22;16.85;;;5.50;86.70;;;;;;2080532;28;20030;-81
2021/03/04 03:03:30;;;;;;;35.85;17.85;;;5.60;86.80;;;;;;2082174;28;20559;-80
2021/03/04 03:04:37;;;;;;;35.75;17.35;;;5.60;86.80;;;;;;2080721;28;20480;-81
2021/03/04 03:05:42;;;;;;;34.70;16.85;;;5.60;86.80;;;;;;2066105;28;20133;-81
2021/03/04 03:06:44;;;;;;;32.45;17.05;;;5.60;86.70;;;;;;2080248;28;20288;-80
2021/03/04 03:07:45;;;;;;;35.85;17.30;;;5.60;86.70;;;;;;2081208;28;20595;-81
2021/03/04 03:08:46;;;;;;;34.17;17.55;;;5.60;86.60;;;;;;2093153;28;20025;-80
2021/03/04 03:09:47;;;;;;;35.20;16.20;;;5.60;86.60;;;;;;2086867;28;20026;-80
2021/03/04 03:10:51;;;;;;;34.25;16.85;;;5.70;86.60;;;;;;2074713;28;20053;-80
2021/03/04 03:11:52;;;;;;;31.25;15.68;;;5.70;86.60;;;;;;2084936;28;20461;-80
2021/03/04 03:12:57;;;;;;;32.63;17.05;;;5.60;86.60;;;;;;2090866;28;20016;-81
2021/03/04 03:13:58;;;;;;;30.75;15.43;;;5.70;86.60;;;;;;2089863;28;20036;-81
2021/03/04 03:15:01;;;;;;;33.55;16.65;;;5.70;86.50;;;;;;2081465;28;20120;-81
2021/03/04 03:16:01;;;;;;;33.90;16.70;;;5.80;86.60;;;;;;2073110;28;20142;-81
2021/03/04 03:17:03;;;;;;;30.10;15.52;;;5.70;86.40;;;;;;2074000;28;20034;-81
2021/03/04 03:18:06;;;;;;;34.65;17.00;;;5.80;86.40;;;;;;2080758;28;20033;-81
2021/03/04 03:19:06;;;;;;;33.65;16.38;;;5.80;86.40;;;;;;2081933;28;20427;-81
2021/03/04 03:20:09;;;;;;;31.67;15.90;;;5.80;86.30;;;;;;2071848;28;20088;-80
2021/03/04 03:21:11;;;;;;;34.38;16.88;;;5.80;86.30;;;;;;2064758;28;20046;-81
2021/03/04 03:22:11;;;;;;;32.00;15.82;;;5.80;86.30;;;;;;2069329;28;20038;-80
2021/03/04 03:23:12;;;;;;;35.38;17.63;;;5.80;86.30;;;;;;2072890;28;20119;-80
2021/03/04 03:24:13;;;;;;;36.88;17.77;;;5.80;86.30;;;;;;2072810;28;20083;-80
2021/03/04 03:25:14;;;;;;;38.03;19.58;;;5.80;86.20;;;;;;2080452;28;20514;-80
2021/03/04 03:26:15;;;;;;;38.00;19.17;;;5.70;86.20;;;;;;2081166;28;20033;-81
2021/03/04 03:27:16;;;;;;;35.55;18.63;;;5.70;86.30;;;;;;2079117;28;20500;-80
2021/03/04 03:28:16;;;;;;;43.78;20.50;;;5.60;86.40;;;;;;2063968;28;20034;-81
2021/03/04 03:29:17;;;;;;;41.95;19.63;;;5.60;86.50;;;;;;2072942;28;20117;-81
2021/03/04 03:30:21;;;;;;;37.67;19.13;;;5.50;86.50;;;;;;2075563;28;20034;-80
2021/03/04 03:31:24;;;;;;;44.80;22.10;;;5.50;86.60;;;;;;2073111;28;20033;-81
2021/03/04 03:32:25;;;;;;;37.83;18.25;;;5.50;86.70;;;;;;2077468;28;20036;-80
2021/03/04 03:33:27;;;;;;;36.45;18.13;;;5.50;86.80;;;;;;2072850;28;20026;-81
2021/03/04 03:34:29;;;;;;;37.25;18.67;;;5.40;86.80;;;;;;2064381;28;20021;-81
2021/03/04 03:35:30;;;;;;;34.42;17.98;;;5.40;86.90;;;;;;2066262;28;20108;-81
2021/03/04 03:36:34;;;;;;;33.50;17.58;;;5.30;87.00;;;;;;2064423;28;20034;-80
2021/03/04 03:37:36;;;;;;;35.35;17.73;;;5.30;87.00;;;;;;2072379;28;20080;-80
2021/03/04 03:38:38;;;;;;;34.85;16.52;;;5.30;87.10;;;;;;2063915;28;20033;-81
2021/03/04 03:39:39;;;;;;;30.90;15.93;;;5.30;87.20;;;;;;2071549;28;20041;-80
2021/03/04 03:40:42;;;;;;;34.58;17.67;;;5.30;87.30;;;;;;2072804;28;20022;-81
2021/03/04 03:41:43;;;;;;;34.63;17.13;;;5.30;87.30;;;;;;2069545;28;20507;-81
2021/03/04 03:42:44;;;;;;;34.05;17.35;;;5.30;87.20;;;;;;2072755;28;20028;-81
2021/03/04 03:43:47;;;;;;;41.17;19.40;;;5.30;87.10;;;;;;2072700;28;20034;-81
2021/03/04 03:44:49;;;;;;;34.65;18.10;;;5.30;87.10;;;;;;2082149;28;20030;-81
2021/03/04 03:45:52;;;;;;;36.95;17.67;;;5.20;87.10;;;;;;2080749;28;20400;-80
2021/03/04 03:46:53;;;;;;;34.72;18.00;;;5.20;87.20;;;;;;2064309;28;20476;-80
2021/03/04 03:47:55;;;;;;;31.30;16.77;;;5.20;87.30;;;;;;2056575;28;20417;-81
2021/03/04 03:48:56;;;;;;;36.08;18.42;;;5.20;87.30;;;;;;2065233;28;20058;-80
2021/03/04 03:49:58;;;;;;;34.85;17.98;;;5.10;87.30;;;;;;2072807;28;20062;-80
2021/03/04 03:50:59;;;;;;;32.60;17.38;;;5.10;87.30;;;;;;2061151;28;20033;-81
2021/03/04 03:52:01;;;;;;;32.75;17.40;;;5.10;87.40;;;;;;2072114;28;20022;-80
2021/03/04 03:53:03;;;;;;;32.90;16.55;;;5.10;87.50;;;;;;2064430;28;20113;-81
2021/03/04 03:54:05;;;;;;;30.75;16.13;;;5.10;87.60;;;;;;2072769;28;20061;-81
2021/03/04 03:55:07;;;;;;;30.58;15.45;;;5.10;87.50;;;;;;2080042;28;20026;-81
2021/03/04 03:56:10;;;;;;;28.95;15.45;;;5.10;87.60;;;;;;2080532;28;20033;-81
2021/03/04 03:57:13;;;;;;;28.77;15.30;;;5.10;87.60;;;;;;2081449;28;20112;-81
2021/03/04 03:58:16;;;;;;;32.47;16.33;;;5.10;87.60;;;;;;2081341;28;20070;-81
2021/03/04 03:59:17;;;;;;;30.60;15.13;;;5.10;87.60;;;;;;2080677;28;20025;-81
2021/03/04 04:00:29;;;;;;;34.78;16.98;;;5.10;88.10;;;;;;2080930;28;20036;-81
2021/03/04 04:01:32;;;;;;;32.30;16.50;;;5.10;87.50;;;;;;2073956;28;20511;-81
2021/03/04 04:02:33;;;;;;;31.45;16.02;;;5.10;88.00;;;;;;2057835;28;20031;-81
2021/03/04 04:03:35;;;;;;;31.90;16.13;;;5.10;87.40;;;;;;2064434;28;20023;-81
2021/03/04 04:04:35;;;;;;;33.03;17.17;;;5.10;87.40;;;;;;2071458;28;20049;-81
2021/03/04 04:05:37;;;;;;;29.80;16.38;;;5.10;87.60;;;;;;2071924;28;20033;-81
2021/03/04 04:06:37;;;;;;;31.98;16.35;;;5.10;87.30;;;;;;2070614;28;20026;-80
2021/03/04 04:07:38;;;;;;;30.50;16.30;;;5.10;87.40;;;;;;2064287;28;20508;-81
2021/03/04 04:08:39;;;;;;;32.65;16.65;;;5.10;87.40;;;;;;2063446;28;20117;-80
2021/03/04 04:09:40;;;;;;;38.50;17.58;;;5.10;87.50;;;;;;2080635;28;20447;-81
2021/03/04 04:10:41;;;;;;;34.28;16.50;;;5.10;87.50;;;;;;2075380;28;20041;-81
2021/03/04 04:11:41;;;;;;;31.25;15.95;;;5.10;87.60;;;;;;2071766;28;20026;-81
2021/03/04 04:12:42;;;;;;;30.38;15.90;;;5.10;87.60;;;;;;2071249;28;20061;-80
2021/03/04 04:13:43;;;;;;;32.53;15.82;;;5.10;87.60;;;;;;2064548;28;20031;-81
2021/03/04 04:14:43;;;;;;;30.70;15.73;;;5.10;87.60;;;;;;2067747;28;20056;-80
2021/03/04 04:15:44;;;;;;;31.98;15.77;;;5.10;87.50;;;;;;2063309;28;20037;-80
2021/03/04 04:16:45;;;;;;;29.95;15.20;;;5.10;87.50;;;;;;2071685;28;20490;-80
2021/03/04 04:17:46;;;;;;;31.08;15.73;;;5.10;87.50;;;;;;2072712;28;20030;-81
2021/03/04 04:18:47;;;;;;;29.95;14.48;;;5.20;87.50;;;;;;2073035;28;20033;-80
2021/03/04 04:19:49;;;;;;;29.70;15.05;;;5.20;87.50;;;;;;2081206;28;20390;-81
2021/03/04 04:20:50;;;;;;;30.80;15.48;;;5.20;87.40;;;;;;2076415;28;20017;-81
2021/03/04 04:21:51;;;;;;;32.50;15.98;;;5.30;87.50;;;;;;2072413;28;20480;-80
2021/03/04 04:22:53;;;;;;;32.40;15.82;;;5.20;87.40;;;;;;2076262;28;20027;-80
2021/03/04 04:23:54;;;;;;;31.20;15.98;;;5.20;87.40;;;;;;2071919;28;20435;-81
2021/03/04 04:24:57;;;;;;;29.23;14.70;;;5.20;87.40;;;;;;2072563;28;20026;-80
2021/03/04 04:25:58;;;;;;;31.17;14.95;;;5.20;87.40;;;;;;2079762;28;20030;-80
2021/03/04 04:26:59;;;;;;;29.98;15.20;;;5.30;87.50;;;;;;2072436;28;20125;-80
2021/03/04 04:27:59;;;;;;;29.90;14.68;;;5.30;87.40;;;;;;2064600;28;20500;-81
2021/03/04 04:29:00;;;;;;;30.85;15.50;;;5.30;87.40;;;;;;2063650;28;20026;-81
2021/03/04 04:30:00;;;;;;;28.35;14.30;;;5.30;87.40;;;;;;2071585;28;20034;-81
2021/03/04 04:31:01;;;;;;;28.05;14.65;;;5.30;87.30;;;;;;2072227;28;20022;-80
2021/03/04 04:32:02;;;;;;;29.88;15.68;;;5.40;87.30;;;;;;2064164;28;20034;-81
2021/03/04 04:33:03;;;;;;;30.10;14.55;;;5.40;87.20;;;;;;2071438;28;20022;-81
2021/03/04 04:34:03;;;;;;;31.92;15.70;;;5.40;87.20;;;;;;2079744;28;20495;-81
2021/03/04 04:35:04;;;;;;;31.77;16.15;;;5.40;87.10;;;;;;2080883;28;20044;-81
2021/03/04 04:36:06;;;;;;;35.38;16.85;;;5.40;87.10;;;;;;2076945;28;20112;-81
2021/03/04 04:37:07;;;;;;;32.72;16.05;;;5.30;87.10;;;;;;2075898;28;20552;-80
2021/03/04 04:38:08;;;;;;;33.17;16.20;;;5.40;87.20;;;;;;2071813;28;20073;-81
2021/03/04 04:39:09;;;;;;;34.17;16.77;;;5.30;87.20;;;;;;2064384;28;20475;-81
2021/03/04 04:40:10;;;;;;;33.22;16.77;;;5.30;87.20;;;;;;2072377;28;20049;-81
2021/03/04 04:41:11;;;;;;;31.88;15.85;;;5.30;87.30;;;;;;2064165;28;20472;-81
2021/03/04 04:42:12;;;;;;;33.45;16.88;;;5.30;87.40;;;;;;2071591;28;20037;-81
2021/03/04 04:43:12;;;;;;;31.73;16.08;;;5.30;87.40;;;;;;2080119;28;20037;-81
2021/03/04 04:44:13;;;;;;;29.65;15.65;;;5.20;87.30;;;;;;2081320;28;20084;-81
2021/03/04 04:45:14;;;;;;;29.85;15.93;;;5.30;87.40;;;;;;2074538;28;20502;-81
2021/03/04 04:46:14;;;;;;;30.67;15.35;;;5.20;87.40;;;;;;2064498;28;20555;-81
2021/03/04 04:47:15;;;;;;;32.35;16.05;;;5.30;87.50;;;;;;2064268;28;20136;-81
2021/03/04 04:48:16;;;;;;;32.10;14.93;;;5.20;87.50;;;;;;2080294;28;20518;-81
2021/03/04 04:49:16;;;;;;;31.50;15.65;;;5.30;87.50;;;;;;2080951;28;20030;-80
2021/03/04 04:50:18;;;;;;;31.33;15.63;;;5.30;87.50;;;;;;2072005;28;20034;-81
2021/03/04 04:51:18;;;;;;;31.27;15.65;;;5.30;87.50;;;;;;2067427;28;20077;-80
2021/03/04 04:52:19;;;;;;;30.27;14.55;;;5.30;87.50;;;;;;2072639;28;20112;-81
2021/03/04 04:53:20;;;;;;;33.15;16.55;;;5.20;87.40;;;;;;2072148;28;20404;-81
2021/03/04 04:54:20;;;;;;;30.60;15.98;;;5.20;87.50;;;;;;2064265;28;20110;-81
2021/03/04 04:55:21;;;;;;;30.45;15.43;;;5.20;87.40;;;;;;2063521;28;20037;-80
2021/03/04 04:56:22;;;;;;;29.88;15.10;;;5.20;87.50;;;;;;2065769;28;20039;-80
2021/03/04 04:57:23;;;;;;;31.50;15.60;;;5.20;87.50;;;;;;2080456;28;20448;-80
2021/03/04 04:58:23;;;;;;;31.17;15.55;;;5.30;87.60;;;;;;2072449;28;20038;-80
2021/03/04 04:59:24;;;;;;;32.22;15.30;;;5.30;87.60;;;;;;2068228;28;20034;-80
2021/03/04 05:00:25;;;;;;;30.85;15.45;;;5.30;87.60;;;;;;2072052;28;20017;-81
2021/03/04 05:01:25;;;;;;;30.95;15.30;;;5.30;87.60;;;;;;2080605;28;20448;-81
2021/03/04 05:02:26;;;;;;;32.17;15.68;;;5.30;87.50;;;;;;2080549;28;20038;-81
2021/03/04 05:03:27;;;;;;;33.78;16.05;;;5.30;87.50;;;;;;2080675;28;20476;-81
2021/03/04 05:04:27;;;;;;;31.40;16.05;;;5.30;87.50;;;;;;2081273;28;20103;-80
2021/03/04 05:05:28;;;;;;;29.52;15.18;;;5.30;87.50;;;;;;2055889;28;20497;-80
2021/03/04 05:06:28;;;;;;;30.63;14.30;;;5.30;87.50;;;;;;2055671;28;20035;-80
2021/03/04 05:07:29;;;;;;;28.85;14.38;;;5.30;87.40;;;;;;2070871;28;20025;-80
2021/03/04 05:08:30;;;;;;;30.40;15.18;;;5.30;88.10;;;;;;2078763;28;20076;-80
2021/03/04 05:09:30;;;;;;;30.42;15.18;;;5.30;87.40;;;;;;2071271;28;20106;-81
2021/03/04 05:10:31;;;;;;;29.98;14.95;;;5.30;87.50;;;;;;2071457;28;20096;-80
2021/03/04 05:11:32;;;;;;;33.03;17.33;;;5.30;87.50;;;;;;2084063;28;20431;-80
2021/03/04 05:12:33;;;;;;;32.50;15.90;;;5.20;87.40;;;;;;2080162;28;20442;-80
2021/03/04 05:13:34;;;;;;;30.58;15.73;;;5.30;87.50;;;;;;2080165;28;20130;-81
2021/03/04 05:14:35;;;;;;;30.45;16.30;;;5.20;87.50;;;;;;2073655;28;20481;-80
2021/03/04 05:15:35;;;;;;;33.58;16.45;;;5.30;87.60;;;;;;2073855;28;20061;-81
2021/03/04 05:16:36;;;;;;;30.92;15.93;;;5.30;87.60;;;;;;2072731;28;20037;-80
2021/03/04 05:17:38;;;;;;;32.67;15.75;;;5.30;88.10;;;;;;2073022;28;20513;-80
2021/03/04 05:18:39;;;;;;;29.30;15.60;;;5.30;87.40;;;;;;2074073;28;20508;-81